sensor_id;sensor_type;location;lat;lon;timestamp;temperature;humidity
14016;DHT22;7083;48.854;9.158;2023-05-31T00:01:18;12.40;79.90
14016;DHT22;7083;48.854;9.158;2023-05-31T00:03:44;12.40;80.50
14016;DHT22;7083;48.854;9.158;2023-05-31T00:06:11;12.30;79.60
14016;DHT22;7083;48.854;9.158;2023-05-31T00:08:39;12.20;79.50
14016;DHT22;7083;48.854;9.158;2023-05-31T00:11:07;12.30;80.10
14016;DHT22;7083;48.854;9.158;2023-05-31T00:13:34;12.20;79.80
14016;DHT22;7083;48.854;9.158;2023-05-31T00:16:00;12.20;79.40
14016;DHT22;7083;48.854;9.158;2023-05-31T00:18:27;12.20;79.00
14016;DHT22;7083;48.854;9.158;2023-05-31T00:20:53;12.20;79.00
14016;DHT22;7083;48.854;9.158;2023-05-31T00:23:20;12.20;79.60
14016;DHT22;7083;48.854;9.158;2023-05-31T00:25:48;12.20;78.90
14016;DHT22;7083;48.854;9.158;2023-05-31T00:28:15;12.20;79.00
14016;DHT22;7083;48.854;9.158;2023-05-31T00:30:42;12.20;78.60
14016;DHT22;7083;48.854;9.158;2023-05-31T00:33:08;12.20;78.60
14016;DHT22;7083;48.854;9.158;2023-05-31T00:35:35;12.30;78.70
14016;DHT22;7083;48.854;9.158;2023-05-31T00:38:04;12.40;77.20
14016;DHT22;7083;48.854;9.158;2023-05-31T00:40:31;12.50;76.80
14016;DHT22;7083;48.854;9.158;2023-05-31T00:42:59;12.50;76.40
14016;DHT22;7083;48.854;9.158;2023-05-31T00:45:26;12.60;75.60
14016;DHT22;7083;48.854;9.158;2023-05-31T00:47:54;12.60;74.90
14016;DHT22;7083;48.854;9.158;2023-05-31T00:50:21;12.60;75.00
14016;DHT22;7083;48.854;9.158;2023-05-31T00:52:50;12.60;75.50
14016;DHT22;7083;48.854;9.158;2023-05-31T00:55:17;12.60;74.80
14016;DHT22;7083;48.854;9.158;2023-05-31T00:57:44;12.60;75.10
14016;DHT22;7083;48.854;9.158;2023-05-31T01:00:13;12.60;74.80
14016;DHT22;7083;48.854;9.158;2023-05-31T01:02:40;12.60;74.40
14016;DHT22;7083;48.854;9.158;2023-05-31T01:05:09;12.60;74.80
14016;DHT22;7083;48.854;9.158;2023-05-31T01:07:36;12.70;76.20
14016;DHT22;7083;48.854;9.158;2023-05-31T01:10:05;12.70;76.00
14016;DHT22;7083;48.854;9.158;2023-05-31T01:12:38;12.70;76.80
14016;DHT22;7083;48.854;9.158;2023-05-31T01:15:10;12.70;77.70
14016;DHT22;7083;48.854;9.158;2023-05-31T01:17:46;12.70;77.00
14016;DHT22;7083;48.854;9.158;2023-05-31T01:20:17;12.70;77.10
14016;DHT22;7083;48.854;9.158;2023-05-31T01:22:55;12.60;77.50
14016;DHT22;7083;48.854;9.158;2023-05-31T01:25:31;12.50;78.40
14016;DHT22;7083;48.854;9.158;2023-05-31T01:28:05;12.40;80.00
14016;DHT22;7083;48.854;9.158;2023-05-31T01:30:33;12.40;79.60
14016;DHT22;7083;48.854;9.158;2023-05-31T01:33:03;12.30;80.00
14016;DHT22;7083;48.854;9.158;2023-05-31T01:35:31;12.20;80.20
14016;DHT22;7083;48.854;9.158;2023-05-31T01:37:57;12.00;80.40
14016;DHT22;7083;48.854;9.158;2023-05-31T01:40:24;12.00;81.50
14016;DHT22;7083;48.854;9.158;2023-05-31T01:42:52;11.90;82.70
14016;DHT22;7083;48.854;9.158;2023-05-31T01:45:20;11.80;83.90
14016;DHT22;7083;48.854;9.158;2023-05-31T01:47:48;11.70;83.30
14016;DHT22;7083;48.854;9.158;2023-05-31T01:50:18;11.60;83.50
14016;DHT22;7083;48.854;9.158;2023-05-31T01:52:46;11.50;84.50
14016;DHT22;7083;48.854;9.158;2023-05-31T01:55:12;11.40;84.50
14016;DHT22;7083;48.854;9.158;2023-05-31T01:57:42;11.30;85.10
14016;DHT22;7083;48.854;9.158;2023-05-31T02:00:10;11.20;85.50
14016;DHT22;7083;48.854;9.158;2023-05-31T02:02:40;11.20;85.40
14016;DHT22;7083;48.854;9.158;2023-05-31T02:05:08;11.10;85.70
14016;DHT22;7083;48.854;9.158;2023-05-31T02:07:36;11.00;86.00
14016;DHT22;7083;48.854;9.158;2023-05-31T02:10:03;11.00;87.00
14016;DHT22;7083;48.854;9.158;2023-05-31T02:12:30;10.90;87.30
14016;DHT22;7083;48.854;9.158;2023-05-31T02:14:57;10.90;87.40
14016;DHT22;7083;48.854;9.158;2023-05-31T02:17:24;10.80;87.00
14016;DHT22;7083;48.854;9.158;2023-05-31T02:19:52;10.70;87.60
14016;DHT22;7083;48.854;9.158;2023-05-31T02:22:19;10.70;88.90
14016;DHT22;7083;48.854;9.158;2023-05-31T02:24:46;10.60;89.60
14016;DHT22;7083;48.854;9.158;2023-05-31T02:27:13;10.60;90.00
14016;DHT22;7083;48.854;9.158;2023-05-31T02:29:40;10.50;90.10
14016;DHT22;7083;48.854;9.158;2023-05-31T02:32:07;10.50;90.20
14016;DHT22;7083;48.854;9.158;2023-05-31T02:34:34;10.40;90.20
14016;DHT22;7083;48.854;9.158;2023-05-31T02:37:02;10.40;90.90
14016;DHT22;7083;48.854;9.158;2023-05-31T02:39:29;10.30;90.90
14016;DHT22;7083;48.854;9.158;2023-05-31T02:41:56;10.30;91.10
14016;DHT22;7083;48.854;9.158;2023-05-31T02:44:22;10.20;91.20
14016;DHT22;7083;48.854;9.158;2023-05-31T02:46:49;10.20;91.60
14016;DHT22;7083;48.854;9.158;2023-05-31T02:49:16;10.10;92.00
14016;DHT22;7083;48.854;9.158;2023-05-31T02:51:43;10.10;92.00
14016;DHT22;7083;48.854;9.158;2023-05-31T02:54:11;10.00;92.00
14016;DHT22;7083;48.854;9.158;2023-05-31T02:56:37;10.00;92.10
14016;DHT22;7083;48.854;9.158;2023-05-31T02:59:04;9.90;92.70
14016;DHT22;7083;48.854;9.158;2023-05-31T03:01:31;9.90;92.90
14016;DHT22;7083;48.854;9.158;2023-05-31T03:03:58;9.80;93.10
14016;DHT22;7083;48.854;9.158;2023-05-31T03:06:25;9.80;93.40
14016;DHT22;7083;48.854;9.158;2023-05-31T03:08:52;9.80;93.60
14016;DHT22;7083;48.854;9.158;2023-05-31T03:11:20;9.70;94.10
14016;DHT22;7083;48.854;9.158;2023-05-31T03:13:47;9.70;94.70
14016;DHT22;7083;48.854;9.158;2023-05-31T03:16:14;9.60;94.50
14016;DHT22;7083;48.854;9.158;2023-05-31T03:18:42;9.60;94.60
14016;DHT22;7083;48.854;9.158;2023-05-31T03:21:08;9.50;94.90
14016;DHT22;7083;48.854;9.158;2023-05-31T03:23:35;9.50;95.10
14016;DHT22;7083;48.854;9.158;2023-05-31T03:26:02;9.50;95.00
14016;DHT22;7083;48.854;9.158;2023-05-31T03:28:30;9.50;95.00
14016;DHT22;7083;48.854;9.158;2023-05-31T03:30:56;9.50;94.80
14016;DHT22;7083;48.854;9.158;2023-05-31T03:33:23;9.50;94.70
14016;DHT22;7083;48.854;9.158;2023-05-31T03:35:50;9.50;94.50
14016;DHT22;7083;48.854;9.158;2023-05-31T03:38:16;9.60;94.60
14016;DHT22;7083;48.854;9.158;2023-05-31T03:40:43;9.60;94.50
14016;DHT22;7083;48.854;9.158;2023-05-31T03:43:10;9.60;94.50
14016;DHT22;7083;48.854;9.158;2023-05-31T03:45:38;9.70;94.30
14016;DHT22;7083;48.854;9.158;2023-05-31T03:48:04;9.70;94.00
14016;DHT22;7083;48.854;9.158;2023-05-31T03:50:31;9.80;93.60
14016;DHT22;7083;48.854;9.158;2023-05-31T03:52:57;9.80;93.30
14016;DHT22;7083;48.854;9.158;2023-05-31T03:55:24;9.90;93.10
14016;DHT22;7083;48.854;9.158;2023-05-31T03:57:51;10.00;92.20
14016;DHT22;7083;48.854;9.158;2023-05-31T04:00:18;10.10;92.00
14016;DHT22;7083;48.854;9.158;2023-05-31T04:02:47;10.20;91.90
14016;DHT22;7083;48.854;9.158;2023-05-31T04:05:13;10.30;91.50
14016;DHT22;7083;48.854;9.158;2023-05-31T04:07:41;10.40;91.30
14016;DHT22;7083;48.854;9.158;2023-05-31T04:10:08;10.50;91.30
14016;DHT22;7083;48.854;9.158;2023-05-31T04:12:35;10.50;91.40
14016;DHT22;7083;48.854;9.158;2023-05-31T04:15:02;10.50;91.90
14016;DHT22;7083;48.854;9.158;2023-05-31T04:17:29;10.50;92.10
14016;DHT22;7083;48.854;9.158;2023-05-31T04:19:57;10.50;92.40
14016;DHT22;7083;48.854;9.158;2023-05-31T04:22:23;10.50;92.50
14016;DHT22;7083;48.854;9.158;2023-05-31T04:24:50;10.50;92.60
14016;DHT22;7083;48.854;9.158;2023-05-31T04:27:17;10.50;92.80
14016;DHT22;7083;48.854;9.158;2023-05-31T04:29:44;10.50;93.00
14016;DHT22;7083;48.854;9.158;2023-05-31T04:32:12;10.50;93.20
14016;DHT22;7083;48.854;9.158;2023-05-31T04:34:40;10.60;93.40
14016;DHT22;7083;48.854;9.158;2023-05-31T04:37:08;10.70;93.80
14016;DHT22;7083;48.854;9.158;2023-05-31T04:39:35;10.70;94.60
14016;DHT22;7083;48.854;9.158;2023-05-31T04:42:02;10.70;94.50
14016;DHT22;7083;48.854;9.158;2023-05-31T04:44:29;10.80;95.00
14016;DHT22;7083;48.854;9.158;2023-05-31T04:46:55;10.80;95.00
14016;DHT22;7083;48.854;9.158;2023-05-31T04:49:23;10.80;94.90
14016;DHT22;7083;48.854;9.158;2023-05-31T04:51:50;10.90;95.20
14016;DHT22;7083;48.854;9.158;2023-05-31T04:54:18;10.90;95.50
14016;DHT22;7083;48.854;9.158;2023-05-31T04:56:45;11.00;95.50
14016;DHT22;7083;48.854;9.158;2023-05-31T04:59:11;11.10;95.80
14016;DHT22;7083;48.854;9.158;2023-05-31T05:01:38;11.20;96.00
14016;DHT22;7083;48.854;9.158;2023-05-31T05:04:05;11.30;95.30
14016;DHT22;7083;48.854;9.158;2023-05-31T05:06:32;11.40;94.30
14016;DHT22;7083;48.854;9.158;2023-05-31T05:09:03;11.50;93.90
14016;DHT22;7083;48.854;9.158;2023-05-31T05:11:31;11.60;94.20
14016;DHT22;7083;48.854;9.158;2023-05-31T05:13:57;11.70;93.60
14016;DHT22;7083;48.854;9.158;2023-05-31T05:16:24;11.80;93.10
14016;DHT22;7083;48.854;9.158;2023-05-31T05:18:51;11.90;92.90
14016;DHT22;7083;48.854;9.158;2023-05-31T05:21:18;12.00;92.60
14016;DHT22;7083;48.854;9.158;2023-05-31T05:23:44;12.10;92.40
14016;DHT22;7083;48.854;9.158;2023-05-31T05:26:11;12.30;91.10
14016;DHT22;7083;48.854;9.158;2023-05-31T05:28:39;12.40;91.10
14016;DHT22;7083;48.854;9.158;2023-05-31T05:31:06;12.50;89.90
14016;DHT22;7083;48.854;9.158;2023-05-31T05:33:33;12.60;90.60
14016;DHT22;7083;48.854;9.158;2023-05-31T05:36:00;12.70;90.10
14016;DHT22;7083;48.854;9.158;2023-05-31T05:38:27;12.80;88.80
14016;DHT22;7083;48.854;9.158;2023-05-31T05:40:54;12.90;87.80
14016;DHT22;7083;48.854;9.158;2023-05-31T05:43:21;13.00;88.50
14016;DHT22;7083;48.854;9.158;2023-05-31T05:45:49;13.20;86.30
14016;DHT22;7083;48.854;9.158;2023-05-31T05:48:16;13.40;85.70
14016;DHT22;7083;48.854;9.158;2023-05-31T05:50:42;13.50;83.80
14016;DHT22;7083;48.854;9.158;2023-05-31T05:53:09;13.70;83.70
14016;DHT22;7083;48.854;9.158;2023-05-31T05:55:36;13.70;83.40
14016;DHT22;7083;48.854;9.158;2023-05-31T05:58:04;13.80;82.10
14016;DHT22;7083;48.854;9.158;2023-05-31T06:00:31;14.00;82.30
14016;DHT22;7083;48.854;9.158;2023-05-31T06:02:59;14.00;83.60
14016;DHT22;7083;48.854;9.158;2023-05-31T06:05:26;14.10;82.40
14016;DHT22;7083;48.854;9.158;2023-05-31T06:07:53;14.20;83.00
14016;DHT22;7083;48.854;9.158;2023-05-31T06:10:20;14.30;83.00
14016;DHT22;7083;48.854;9.158;2023-05-31T06:12:47;14.30;83.50
14016;DHT22;7083;48.854;9.158;2023-05-31T06:15:13;14.40;82.00
14016;DHT22;7083;48.854;9.158;2023-05-31T06:17:40;14.40;81.90
14016;DHT22;7083;48.854;9.158;2023-05-31T06:20:10;14.50;81.20
14016;DHT22;7083;48.854;9.158;2023-05-31T06:22:36;14.60;81.20
14016;DHT22;7083;48.854;9.158;2023-05-31T06:25:04;14.70;81.00
14016;DHT22;7083;48.854;9.158;2023-05-31T06:27:30;14.70;82.10
14016;DHT22;7083;48.854;9.158;2023-05-31T06:29:57;14.80;81.70
14016;DHT22;7083;48.854;9.158;2023-05-31T06:32:24;14.90;81.60
14016;DHT22;7083;48.854;9.158;2023-05-31T06:34:51;15.00;80.10
14016;DHT22;7083;48.854;9.158;2023-05-31T06:37:20;15.20;79.30
14016;DHT22;7083;48.854;9.158;2023-05-31T06:39:47;15.20;79.90
14016;DHT22;7083;48.854;9.158;2023-05-31T06:42:13;15.30;80.70
14016;DHT22;7083;48.854;9.158;2023-05-31T06:44:41;15.40;78.60
14016;DHT22;7083;48.854;9.158;2023-05-31T06:47:08;15.50;78.90
14016;DHT22;7083;48.854;9.158;2023-05-31T06:49:38;15.50;79.90
14016;DHT22;7083;48.854;9.158;2023-05-31T06:52:05;15.90;80.00
14016;DHT22;7083;48.854;9.158;2023-05-31T06:54:36;15.60;79.00
14016;DHT22;7083;48.854;9.158;2023-05-31T06:57:03;15.70;79.90
14016;DHT22;7083;48.854;9.158;2023-05-31T06:59:30;15.80;80.20
14016;DHT22;7083;48.854;9.158;2023-05-31T07:01:56;15.90;77.80
14016;DHT22;7083;48.854;9.158;2023-05-31T07:04:23;16.00;79.00
14016;DHT22;7083;48.854;9.158;2023-05-31T07:06:50;16.20;78.10
14016;DHT22;7083;48.854;9.158;2023-05-31T07:09:20;16.30;76.70
14016;DHT22;7083;48.854;9.158;2023-05-31T07:11:48;16.40;76.80
14016;DHT22;7083;48.854;9.158;2023-05-31T07:14:15;16.50;77.70
14016;DHT22;7083;48.854;9.158;2023-05-31T07:16:41;16.60;76.20
14016;DHT22;7083;48.854;9.158;2023-05-31T07:19:08;16.70;76.40
14016;DHT22;7083;48.854;9.158;2023-05-31T07:21:35;16.80;76.30
14016;DHT22;7083;48.854;9.158;2023-05-31T07:24:01;16.90;74.70
14016;DHT22;7083;48.854;9.158;2023-05-31T07:26:28;17.00;73.70
14016;DHT22;7083;48.854;9.158;2023-05-31T07:28:56;17.10;73.00
14016;DHT22;7083;48.854;9.158;2023-05-31T07:31:23;17.30;74.00
14016;DHT22;7083;48.854;9.158;2023-05-31T07:33:50;17.30;74.50
14016;DHT22;7083;48.854;9.158;2023-05-31T07:36:17;17.40;71.30
14016;DHT22;7083;48.854;9.158;2023-05-31T07:38:44;17.50;72.30
14016;DHT22;7083;48.854;9.158;2023-05-31T07:41:11;17.60;72.20
14016;DHT22;7083;48.854;9.158;2023-05-31T07:43:37;17.60;73.50
14016;DHT22;7083;48.854;9.158;2023-05-31T07:46:07;17.80;71.70
14016;DHT22;7083;48.854;9.158;2023-05-31T07:48:34;17.90;72.10
14016;DHT22;7083;48.854;9.158;2023-05-31T07:51:01;18.00;72.80
14016;DHT22;7083;48.854;9.158;2023-05-31T07:53:27;18.10;71.20
14016;DHT22;7083;48.854;9.158;2023-05-31T07:55:54;18.30;72.60
14016;DHT22;7083;48.854;9.158;2023-05-31T07:58:21;18.30;73.00
14016;DHT22;7083;48.854;9.158;2023-05-31T08:00:48;18.40;70.30
14016;DHT22;7083;48.854;9.158;2023-05-31T08:03:18;18.50;69.00
14016;DHT22;7083;48.854;9.158;2023-05-31T08:05:45;18.60;70.40
14016;DHT22;7083;48.854;9.158;2023-05-31T08:08:14;18.60;69.80
14016;DHT22;7083;48.854;9.158;2023-05-31T08:10:41;18.70;69.50
14016;DHT22;7083;48.854;9.158;2023-05-31T08:13:08;18.80;70.10
14016;DHT22;7083;48.854;9.158;2023-05-31T08:15:34;18.90;69.00
14016;DHT22;7083;48.854;9.158;2023-05-31T08:18:02;19.00;67.50
14016;DHT22;7083;48.854;9.158;2023-05-31T08:20:30;19.10;65.30
14016;DHT22;7083;48.854;9.158;2023-05-31T08:22:56;19.20;65.20
14016;DHT22;7083;48.854;9.158;2023-05-31T08:25:24;19.20;67.90
14016;DHT22;7083;48.854;9.158;2023-05-31T08:27:50;19.40;68.40
14016;DHT22;7083;48.854;9.158;2023-05-31T08:30:17;19.40;67.80
14016;DHT22;7083;48.854;9.158;2023-05-31T08:32:44;19.50;67.70
14016;DHT22;7083;48.854;9.158;2023-05-31T08:35:10;19.60;67.60
14016;DHT22;7083;48.854;9.158;2023-05-31T08:37:39;19.70;66.30
14016;DHT22;7083;48.854;9.158;2023-05-31T08:40:06;19.80;67.40
14016;DHT22;7083;48.854;9.158;2023-05-31T08:42:38;19.80;68.10
14016;DHT22;7083;48.854;9.158;2023-05-31T08:45:07;19.90;67.40
14016;DHT22;7083;48.854;9.158;2023-05-31T08:47:38;19.90;67.60
14016;DHT22;7083;48.854;9.158;2023-05-31T08:50:06;20.00;67.30
14016;DHT22;7083;48.854;9.158;2023-05-31T08:52:34;20.10;65.10
14016;DHT22;7083;48.854;9.158;2023-05-31T08:55:03;20.10;67.60
14016;DHT22;7083;48.854;9.158;2023-05-31T08:57:31;20.20;65.70
14016;DHT22;7083;48.854;9.158;2023-05-31T09:00:01;20.30;63.70
14016;DHT22;7083;48.854;9.158;2023-05-31T09:02:33;20.30;65.50
14016;DHT22;7083;48.854;9.158;2023-05-31T09:05:00;20.30;65.30
14016;DHT22;7083;48.854;9.158;2023-05-31T09:07:27;20.40;63.80
14016;DHT22;7083;48.854;9.158;2023-05-31T09:09:54;20.40;64.20
14016;DHT22;7083;48.854;9.158;2023-05-31T09:12:22;20.50;64.60
14016;DHT22;7083;48.854;9.158;2023-05-31T09:14:49;20.50;64.10
14016;DHT22;7083;48.854;9.158;2023-05-31T09:17:16;20.50;64.40
14016;DHT22;7083;48.854;9.158;2023-05-31T09:19:49;20.60;64.50
14016;DHT22;7083;48.854;9.158;2023-05-31T09:22:16;20.60;64.20
14016;DHT22;7083;48.854;9.158;2023-05-31T09:24:49;20.70;64.30
14016;DHT22;7083;48.854;9.158;2023-05-31T09:27:15;20.70;64.00
14016;DHT22;7083;48.854;9.158;2023-05-31T09:29:50;20.70;63.20
14016;DHT22;7083;48.854;9.158;2023-05-31T09:32:17;20.80;65.20
14016;DHT22;7083;48.854;9.158;2023-05-31T09:34:44;20.90;62.90
14016;DHT22;7083;48.854;9.158;2023-05-31T09:37:20;21.00;63.90
14016;DHT22;7083;48.854;9.158;2023-05-31T09:39:53;21.00;64.30
14016;DHT22;7083;48.854;9.158;2023-05-31T09:42:20;21.10;63.30
14016;DHT22;7083;48.854;9.158;2023-05-31T09:44:49;21.20;63.00
14016;DHT22;7083;48.854;9.158;2023-05-31T09:47:15;21.10;63.10
14016;DHT22;7083;48.854;9.158;2023-05-31T09:49:42;21.10;60.50
14016;DHT22;7083;48.854;9.158;2023-05-31T09:52:11;21.20;62.40
14016;DHT22;7083;48.854;9.158;2023-05-31T09:54:38;21.20;62.30
14016;DHT22;7083;48.854;9.158;2023-05-31T09:57:05;21.20;61.90
14016;DHT22;7083;48.854;9.158;2023-05-31T09:59:39;21.30;61.80
14016;DHT22;7083;48.854;9.158;2023-05-31T10:02:08;21.40;62.10
14016;DHT22;7083;48.854;9.158;2023-05-31T10:04:35;21.50;62.30
14016;DHT22;7083;48.854;9.158;2023-05-31T10:07:10;21.60;58.50
14016;DHT22;7083;48.854;9.158;2023-05-31T10:09:38;21.70;59.80
14016;DHT22;7083;48.854;9.158;2023-05-31T10:12:05;21.70;58.80
14016;DHT22;7083;48.854;9.158;2023-05-31T10:14:34;21.70;59.80
14016;DHT22;7083;48.854;9.158;2023-05-31T10:17:05;21.80;59.50
14016;DHT22;7083;48.854;9.158;2023-05-31T10:19:40;21.90;59.70
14016;DHT22;7083;48.854;9.158;2023-05-31T10:22:07;21.90;58.60
14016;DHT22;7083;48.854;9.158;2023-05-31T10:24:40;22.00;57.90
14016;DHT22;7083;48.854;9.158;2023-05-31T10:27:14;22.00;58.50
14016;DHT22;7083;48.854;9.158;2023-05-31T10:29:44;22.00;57.50
14016;DHT22;7083;48.854;9.158;2023-05-31T10:32:18;22.00;57.30
14016;DHT22;7083;48.854;9.158;2023-05-31T10:34:47;22.10;58.40
14016;DHT22;7083;48.854;9.158;2023-05-31T10:37:15;22.10;57.90
14016;DHT22;7083;48.854;9.158;2023-05-31T10:39:52;22.20;59.00
14016;DHT22;7083;48.854;9.158;2023-05-31T10:42:22;22.20;57.60
14016;DHT22;7083;48.854;9.158;2023-05-31T10:44:56;22.30;57.70
14016;DHT22;7083;48.854;9.158;2023-05-31T10:47:28;22.40;57.80
14016;DHT22;7083;48.854;9.158;2023-05-31T10:50:01;22.50;57.40
14016;DHT22;7083;48.854;9.158;2023-05-31T10:52:29;22.50;55.90
14016;DHT22;7083;48.854;9.158;2023-05-31T10:55:14;22.50;57.30
14016;DHT22;7083;48.854;9.158;2023-05-31T10:57:41;22.70;57.00
14016;DHT22;7083;48.854;9.158;2023-05-31T11:00:08;22.90;57.10
14016;DHT22;7083;48.854;9.158;2023-05-31T11:02:37;22.90;57.10
14016;DHT22;7083;48.854;9.158;2023-05-31T11:05:21;23.10;57.40
14016;DHT22;7083;48.854;9.158;2023-05-31T11:07:50;23.00;57.00
14016;DHT22;7083;48.854;9.158;2023-05-31T11:10:24;23.00;56.20
14016;DHT22;7083;48.854;9.158;2023-05-31T11:12:51;23.10;56.60
14016;DHT22;7083;48.854;9.158;2023-05-31T11:15:18;23.20;56.30
14016;DHT22;7083;48.854;9.158;2023-05-31T11:17:51;23.30;55.90
14016;DHT22;7083;48.854;9.158;2023-05-31T11:20:18;23.40;56.50
14016;DHT22;7083;48.854;9.158;2023-05-31T11:22:47;23.60;58.20
14016;DHT22;7083;48.854;9.158;2023-05-31T11:25:20;23.70;55.80
14016;DHT22;7083;48.854;9.158;2023-05-31T11:27:47;23.70;54.30
14016;DHT22;7083;48.854;9.158;2023-05-31T11:30:15;23.70;54.00
14016;DHT22;7083;48.854;9.158;2023-05-31T11:32:57;23.90;57.30
14016;DHT22;7083;48.854;9.158;2023-05-31T11:35:24;23.90;52.30
14016;DHT22;7083;48.854;9.158;2023-05-31T11:38:02;24.10;55.20
14016;DHT22;7083;48.854;9.158;2023-05-31T11:40:29;24.20;53.00
14016;DHT22;7083;48.854;9.158;2023-05-31T11:43:03;24.30;54.30
14016;DHT22;7083;48.854;9.158;2023-05-31T11:45:31;24.40;51.90
14016;DHT22;7083;48.854;9.158;2023-05-31T11:48:08;24.50;51.90
14016;DHT22;7083;48.854;9.158;2023-05-31T11:50:41;24.60;52.30
14016;DHT22;7083;48.854;9.158;2023-05-31T11:53:10;24.70;52.60
14016;DHT22;7083;48.854;9.158;2023-05-31T11:55:36;24.90;54.10
14016;DHT22;7083;48.854;9.158;2023-05-31T11:58:05;25.10;51.40
14016;DHT22;7083;48.854;9.158;2023-05-31T12:00:32;25.20;52.50
14016;DHT22;7083;48.854;9.158;2023-05-31T12:02:58;25.30;49.60
14016;DHT22;7083;48.854;9.158;2023-05-31T12:05:29;25.30;49.50
14016;DHT22;7083;48.854;9.158;2023-05-31T12:07:56;25.40;50.90
14016;DHT22;7083;48.854;9.158;2023-05-31T12:10:26;25.50;50.30
14016;DHT22;7083;48.854;9.158;2023-05-31T12:12:53;25.70;50.20
14016;DHT22;7083;48.854;9.158;2023-05-31T12:15:20;25.70;48.90
14016;DHT22;7083;48.854;9.158;2023-05-31T12:17:47;25.70;50.20
14016;DHT22;7083;48.854;9.158;2023-05-31T12:20:14;26.00;50.40
14016;DHT22;7083;48.854;9.158;2023-05-31T12:22:41;26.30;51.40
14016;DHT22;7083;48.854;9.158;2023-05-31T12:25:08;26.50;51.20
14016;DHT22;7083;48.854;9.158;2023-05-31T12:27:36;26.70;49.80
14016;DHT22;7083;48.854;9.158;2023-05-31T12:30:03;27.00;49.30
14016;DHT22;7083;48.854;9.158;2023-05-31T12:32:31;27.20;46.10
14016;DHT22;7083;48.854;9.158;2023-05-31T12:35:05;27.40;47.60
14016;DHT22;7083;48.854;9.158;2023-05-31T12:37:35;27.60;46.80
14016;DHT22;7083;48.854;9.158;2023-05-31T12:40:09;27.80;46.00
14016;DHT22;7083;48.854;9.158;2023-05-31T12:42:38;28.00;46.30
14016;DHT22;7083;48.854;9.158;2023-05-31T12:45:06;28.20;44.80
14016;DHT22;7083;48.854;9.158;2023-05-31T12:47:33;28.50;45.80
14016;DHT22;7083;48.854;9.158;2023-05-31T12:50:01;28.80;46.40
14016;DHT22;7083;48.854;9.158;2023-05-31T12:52:31;29.20;44.20
14016;DHT22;7083;48.854;9.158;2023-05-31T12:57:27;30.10;44.20
14016;DHT22;7083;48.854;9.158;2023-05-31T13:00:01;32.60;40.60
14016;DHT22;7083;48.854;9.158;2023-05-31T13:02:30;33.60;37.90
14016;DHT22;7083;48.854;9.158;2023-05-31T13:07:23;34.20;35.70
14016;DHT22;7083;48.854;9.158;2023-05-31T13:09:50;35.30;34.60
14016;DHT22;7083;48.854;9.158;2023-05-31T13:12:17;35.50;35.60
14016;DHT22;7083;48.854;9.158;2023-05-31T13:14:44;36.10;33.70
14016;DHT22;7083;48.854;9.158;2023-05-31T13:24:33;36.50;33.40
14016;DHT22;7083;48.854;9.158;2023-05-31T13:27:00;37.80;31.00
14016;DHT22;7083;48.854;9.158;2023-05-31T13:29:27;38.40;35.10
14016;DHT22;7083;48.854;9.158;2023-05-31T13:31:53;39.20;33.40
14016;DHT22;7083;48.854;9.158;2023-05-31T13:34:22;39.90;30.50
14016;DHT22;7083;48.854;9.158;2023-05-31T13:36:49;39.70;30.00
14016;DHT22;7083;48.854;9.158;2023-05-31T13:39:15;39.30;29.30
14016;DHT22;7083;48.854;9.158;2023-05-31T13:41:43;38.50;29.80
14016;DHT22;7083;48.854;9.158;2023-05-31T13:44:09;38.80;30.70
14016;DHT22;7083;48.854;9.158;2023-05-31T13:46:38;39.20;31.10
14016;DHT22;7083;48.854;9.158;2023-05-31T13:49:05;39.80;32.90
14016;DHT22;7083;48.854;9.158;2023-05-31T13:51:33;40.10;31.40
14016;DHT22;7083;48.854;9.158;2023-05-31T13:53:59;40.50;30.20
14016;DHT22;7083;48.854;9.158;2023-05-31T13:56:26;40.80;29.30
14016;DHT22;7083;48.854;9.158;2023-05-31T13:58:53;40.90;29.40
14016;DHT22;7083;48.854;9.158;2023-05-31T14:01:19;41.10;30.40
14016;DHT22;7083;48.854;9.158;2023-05-31T14:03:46;41.50;30.40
14016;DHT22;7083;48.854;9.158;2023-05-31T14:06:13;41.50;31.00
14016;DHT22;7083;48.854;9.158;2023-05-31T14:08:41;41.50;28.90
14016;DHT22;7083;48.854;9.158;2023-05-31T14:11:09;41.00;29.80
14016;DHT22;7083;48.854;9.158;2023-05-31T14:13:37;40.90;29.50
14016;DHT22;7083;48.854;9.158;2023-05-31T14:16:04;41.20;32.10
14016;DHT22;7083;48.854;9.158;2023-05-31T14:18:31;41.20;29.60
14016;DHT22;7083;48.854;9.158;2023-05-31T14:20:58;41.70;31.00
14016;DHT22;7083;48.854;9.158;2023-05-31T14:23:24;42.30;27.70
14016;DHT22;7083;48.854;9.158;2023-05-31T14:25:52;42.10;29.70
14016;DHT22;7083;48.854;9.158;2023-05-31T14:30:46;41.90;27.90
14016;DHT22;7083;48.854;9.158;2023-05-31T14:33:13;42.40;27.90
14016;DHT22;7083;48.854;9.158;2023-05-31T14:35:39;41.80;28.30
14016;DHT22;7083;48.854;9.158;2023-05-31T14:38:06;41.30;27.80
14016;DHT22;7083;48.854;9.158;2023-05-31T14:40:33;41.50;30.00
14016;DHT22;7083;48.854;9.158;2023-05-31T14:43:01;41.70;29.00
14016;DHT22;7083;48.854;9.158;2023-05-31T14:45:27;41.90;28.40
14016;DHT22;7083;48.854;9.158;2023-05-31T14:47:54;42.00;28.30
14016;DHT22;7083;48.854;9.158;2023-05-31T14:50:22;41.90;28.20
14016;DHT22;7083;48.854;9.158;2023-05-31T14:52:48;41.50;28.60
14016;DHT22;7083;48.854;9.158;2023-05-31T14:55:15;41.40;28.40
14016;DHT22;7083;48.854;9.158;2023-05-31T14:57:42;41.60;29.20
14016;DHT22;7083;48.854;9.158;2023-05-31T15:00:11;41.90;28.60
14016;DHT22;7083;48.854;9.158;2023-05-31T15:02:38;42.00;28.50
14016;DHT22;7083;48.854;9.158;2023-05-31T15:05:07;41.80;27.70
14016;DHT22;7083;48.854;9.158;2023-05-31T15:07:33;42.20;27.30
14016;DHT22;7083;48.854;9.158;2023-05-31T15:10:00;41.60;29.60
14016;DHT22;7083;48.854;9.158;2023-05-31T15:12:28;42.20;29.40
14016;DHT22;7083;48.854;9.158;2023-05-31T15:14:55;42.20;26.70
14016;DHT22;7083;48.854;9.158;2023-05-31T15:17:23;42.20;28.30
14016;DHT22;7083;48.854;9.158;2023-05-31T15:19:49;42.20;28.70
14016;DHT22;7083;48.854;9.158;2023-05-31T15:22:16;43.00;28.30
14016;DHT22;7083;48.854;9.158;2023-05-31T15:24:42;43.60;29.30
14016;DHT22;7083;48.854;9.158;2023-05-31T15:27:09;43.70;27.30
14016;DHT22;7083;48.854;9.158;2023-05-31T15:29:37;43.50;27.40
14016;DHT22;7083;48.854;9.158;2023-05-31T15:32:05;43.40;28.20
14016;DHT22;7083;48.854;9.158;2023-05-31T15:34:34;43.00;27.50
14016;DHT22;7083;48.854;9.158;2023-05-31T15:37:01;42.90;27.60
14016;DHT22;7083;48.854;9.158;2023-05-31T15:39:27;43.00;27.90
14016;DHT22;7083;48.854;9.158;2023-05-31T15:41:54;42.80;29.10
14016;DHT22;7083;48.854;9.158;2023-05-31T15:44:21;42.80;28.00
14016;DHT22;7083;48.854;9.158;2023-05-31T15:46:47;43.20;27.70
14016;DHT22;7083;48.854;9.158;2023-05-31T15:49:14;43.20;27.70
14016;DHT22;7083;48.854;9.158;2023-05-31T15:51:42;43.40;28.00
14016;DHT22;7083;48.854;9.158;2023-05-31T15:54:08;42.90;28.70
14016;DHT22;7083;48.854;9.158;2023-05-31T15:56:35;43.20;29.30
14016;DHT22;7083;48.854;9.158;2023-05-31T15:59:02;43.20;29.50
14016;DHT22;7083;48.854;9.158;2023-05-31T16:01:29;43.40;28.50
14016;DHT22;7083;48.854;9.158;2023-05-31T16:03:55;43.20;28.60
14016;DHT22;7083;48.854;9.158;2023-05-31T16:06:22;42.40;28.60